sensor_id;sensor_type;location;lat;lon;timestamp;pressure;altitude;pressure_sealevel;temperature
40045;BMP280;25735;48.122;11.422;2023-02-03T00:01:33;96305.94;;;4.63
40045;BMP280;25735;48.122;11.422;2023-02-03T00:03:58;96310.25;;;4.57
40045;BMP280;25735;48.122;11.422;2023-02-03T00:06:23;96310.97;;;4.61
40045;BMP280;25735;48.122;11.422;2023-02-03T00:08:52;96302.47;;;4.63
40045;BMP280;25735;48.122;11.422;2023-02-03T00:11:18;96316.31;;;4.65
40045;BMP280;25735;48.122;11.422;2023-02-03T00:13:43;96308.63;;;4.63
40045;BMP280;25735;48.122;11.422;2023-02-03T00:16:09;96295.59;;;4.62
40045;BMP280;25735;48.122;11.422;2023-02-03T00:18:34;96314.38;;;4.65
40045;BMP280;25735;48.122;11.422;2023-02-03T00:20:59;96311.25;;;4.67
40045;BMP280;25735;48.122;11.422;2023-02-03T00:23:24;96314.59;;;4.74
40045;BMP280;25735;48.122;11.422;2023-02-03T00:25:50;96306.16;;;4.72
40045;BMP280;25735;48.122;11.422;2023-02-03T00:28:16;96299.09;;;4.59
40045;BMP280;25735;48.122;11.422;2023-02-03T00:30:41;96298.59;;;4.64
40045;BMP280;25735;48.122;11.422;2023-02-03T00:33:06;96310.91;;;4.65
40045;BMP280;25735;48.122;11.422;2023-02-03T00:35:31;96289.31;;;4.68
40045;BMP280;25735;48.122;11.422;2023-02-03T00:37:57;96297.09;;;4.63
40045;BMP280;25735;48.122;11.422;2023-02-03T00:40:24;96294.50;;;4.78
40045;BMP280;25735;48.122;11.422;2023-02-03T00:42:50;96292.28;;;4.74
40045;BMP280;25735;48.122;11.422;2023-02-03T00:45:15;96293.06;;;4.74
40045;BMP280;25735;48.122;11.422;2023-02-03T00:47:40;96297.59;;;4.77
40045;BMP280;25735;48.122;11.422;2023-02-03T00:50:06;96297.34;;;4.72
40045;BMP280;25735;48.122;11.422;2023-02-03T00:52:32;96302.97;;;4.77
40045;BMP280;25735;48.122;11.422;2023-02-03T00:54:57;96287.03;;;4.67
40045;BMP280;25735;48.122;11.422;2023-02-03T00:57:22;96305.84;;;4.89
40045;BMP280;25735;48.122;11.422;2023-02-03T00:59:48;96295.34;;;4.76
40045;BMP280;25735;48.122;11.422;2023-02-03T01:02:13;96301.47;;;4.76
40045;BMP280;25735;48.122;11.422;2023-02-03T01:04:38;96302.94;;;4.80
40045;BMP280;25735;48.122;11.422;2023-02-03T01:07:03;96300.59;;;4.82
40045;BMP280;25735;48.122;11.422;2023-02-03T01:09:32;96310.66;;;4.78
40045;BMP280;25735;48.122;11.422;2023-02-03T01:11:57;96317.75;;;4.69
40045;BMP280;25735;48.122;11.422;2023-02-03T01:14:23;96312.88;;;4.83
40045;BMP280;25735;48.122;11.422;2023-02-03T01:16:48;96313.38;;;4.78
40045;BMP280;25735;48.122;11.422;2023-02-03T01:19:13;96322.19;;;4.79
40045;BMP280;25735;48.122;11.422;2023-02-03T01:21:39;96334.72;;;4.66
40045;BMP280;25735;48.122;11.422;2023-02-03T01:24:04;96316.41;;;4.80
40045;BMP280;25735;48.122;11.422;2023-02-03T01:26:29;96327.19;;;4.80
40045;BMP280;25735;48.122;11.422;2023-02-03T01:28:56;96309.38;;;4.86
40045;BMP280;25735;48.122;11.422;2023-02-03T01:31:31;96320.88;;;4.90
40045;BMP280;25735;48.122;11.422;2023-02-03T01:33:59;96302.91;;;4.84
40045;BMP280;25735;48.122;11.422;2023-02-03T01:36:27;96313.47;;;4.94
40045;BMP280;25735;48.122;11.422;2023-02-03T01:38:53;96312.84;;;4.87
40045;BMP280;25735;48.122;11.422;2023-02-03T01:41:21;96303.53;;;4.91
40045;BMP280;25735;48.122;11.422;2023-02-03T01:43:52;96308.03;;;4.98
40045;BMP280;25735;48.122;11.422;2023-02-03T01:46:25;96301.66;;;4.88
40045;BMP280;25735;48.122;11.422;2023-02-03T01:48:53;96291.34;;;4.83
40045;BMP280;25735;48.122;11.422;2023-02-03T01:51:20;96294.31;;;4.89
40045;BMP280;25735;48.122;11.422;2023-02-03T01:53:47;96286.25;;;4.89
40045;BMP280;25735;48.122;11.422;2023-02-03T01:56:12;96289.50;;;5.00
40045;BMP280;25735;48.122;11.422;2023-02-03T01:58:39;96293.06;;;4.93
40045;BMP280;25735;48.122;11.422;2023-02-03T02:01:05;96278.47;;;4.94
40045;BMP280;25735;48.122;11.422;2023-02-03T02:03:38;96274.44;;;5.02
40045;BMP280;25735;48.122;11.422;2023-02-03T02:06:07;96276.19;;;5.12
40045;BMP280;25735;48.122;11.422;2023-02-03T02:08:34;96279.28;;;4.91
40045;BMP280;25735;48.122;11.422;2023-02-03T02:11:00;96265.31;;;4.96
40045;BMP280;25735;48.122;11.422;2023-02-03T02:13:27;96282.66;;;4.95
40045;BMP280;25735;48.122;11.422;2023-02-03T02:16:05;96277.38;;;5.11
40045;BMP280;25735;48.122;11.422;2023-02-03T02:30:04;96287.31;;;5.14
40045;BMP280;25735;48.122;11.422;2023-02-03T02:32:59;96271.53;;;5.12
40045;BMP280;25735;48.122;11.422;2023-02-03T02:38:23;96301.69;;;5.07
40045;BMP280;25735;48.122;11.422;2023-02-03T02:40:59;96286.06;;;5.18
40045;BMP280;25735;48.122;11.422;2023-02-03T02:43:33;96274.88;;;5.20
40045;BMP280;25735;48.122;11.422;2023-02-03T02:46:12;96274.81;;;5.04
40045;BMP280;25735;48.122;11.422;2023-02-03T02:49:02;96304.69;;;5.09
40045;BMP280;25735;48.122;11.422;2023-02-03T02:51:30;96297.19;;;5.01
40045;BMP280;25735;48.122;11.422;2023-02-03T02:53:59;96300.56;;;5.05
40045;BMP280;25735;48.122;11.422;2023-02-03T02:56:26;96282.53;;;5.02
40045;BMP280;25735;48.122;11.422;2023-02-03T02:58:55;96279.00;;;5.05
40045;BMP280;25735;48.122;11.422;2023-02-03T03:01:21;96283.94;;;5.10
40045;BMP280;25735;48.122;11.422;2023-02-03T03:03:47;96266.22;;;5.09
40045;BMP280;25735;48.122;11.422;2023-02-03T03:09:14;96277.38;;;5.11
40045;BMP280;25735;48.122;11.422;2023-02-03T03:11:51;96290.00;;;5.14
40045;BMP280;25735;48.122;11.422;2023-02-03T03:14:19;96283.66;;;5.04
40045;BMP280;25735;48.122;11.422;2023-02-03T03:16:53;96282.19;;;5.19
40045;BMP280;25735;48.122;11.422;2023-02-03T03:19:23;96269.56;;;5.16
40045;BMP280;25735;48.122;11.422;2023-02-03T03:21:55;96282.25;;;5.16
40045;BMP280;25735;48.122;11.422;2023-02-03T03:24:27;96275.22;;;5.22
40045;BMP280;25735;48.122;11.422;2023-02-03T03:26:57;96288.28;;;5.23
40045;BMP280;25735;48.122;11.422;2023-02-03T03:29:47;96272.75;;;5.31
40045;BMP280;25735;48.122;11.422;2023-02-03T03:32:13;96287.88;;;5.25
40045;BMP280;25735;48.122;11.422;2023-02-03T03:34:39;96273.97;;;5.07
40045;BMP280;25735;48.122;11.422;2023-02-03T03:37:22;96265.25;;;5.19
40045;BMP280;25735;48.122;11.422;2023-02-03T03:39:54;96255.06;;;5.10
40045;BMP280;25735;48.122;11.422;2023-02-03T03:42:26;96252.28;;;5.14
40045;BMP280;25735;48.122;11.422;2023-02-03T03:45:03;96231.84;;;5.16
40045;BMP280;25735;48.122;11.422;2023-02-03T03:47:34;96243.84;;;5.12
40045;BMP280;25735;48.122;11.422;2023-02-03T03:50:03;96228.94;;;5.07
40045;BMP280;25735;48.122;11.422;2023-02-03T03:52:31;96232.31;;;5.11
40045;BMP280;25735;48.122;11.422;2023-02-03T03:55:00;96253.13;;;5.11
40045;BMP280;25735;48.122;11.422;2023-02-03T03:57:40;96254.50;;;5.19
40045;BMP280;25735;48.122;11.422;2023-02-03T04:00:09;96259.69;;;5.10
40045;BMP280;25735;48.122;11.422;2023-02-03T04:02:38;96250.06;;;5.09
40045;BMP280;25735;48.122;11.422;2023-02-03T04:05:04;96266.97;;;5.09
40045;BMP280;25735;48.122;11.422;2023-02-03T04:07:38;96263.31;;;5.19
40045;BMP280;25735;48.122;11.422;2023-02-03T04:10:06;96265.34;;;5.15
40045;BMP280;25735;48.122;11.422;2023-02-03T04:12:36;96271.47;;;5.16
40045;BMP280;25735;48.122;11.422;2023-02-03T04:15:02;96276.44;;;4.98
40045;BMP280;25735;48.122;11.422;2023-02-03T04:17:27;96264.25;;;5.13
40045;BMP280;25735;48.122;11.422;2023-02-03T04:19:52;96265.06;;;5.10
40045;BMP280;25735;48.122;11.422;2023-02-03T04:22:17;96287.03;;;5.08
40045;BMP280;25735;48.122;11.422;2023-02-03T04:24:43;96286.19;;;5.11
40045;BMP280;25735;48.122;11.422;2023-02-03T04:27:08;96269.81;;;5.03
40045;BMP280;25735;48.122;11.422;2023-02-03T04:29:33;96278.31;;;5.01
40045;BMP280;25735;48.122;11.422;2023-02-03T04:31:58;96283.22;;;5.06
40045;BMP280;25735;48.122;11.422;2023-02-03T04:34:24;96293.31;;;5.21
40045;BMP280;25735;48.122;11.422;2023-02-03T04:36:49;96300.72;;;5.17
40045;BMP280;25735;48.122;11.422;2023-02-03T04:39:14;96290.00;;;5.14
40045;BMP280;25735;48.122;11.422;2023-02-03T04:41:39;96275.44;;;5.11
40045;BMP280;25735;48.122;11.422;2023-02-03T04:44:05;96277.97;;;5.18
40045;BMP280;25735;48.122;11.422;2023-02-03T04:46:30;96287.31;;;5.14
40045;BMP280;25735;48.122;11.422;2023-02-03T04:48:56;96279.31;;;5.10
40045;BMP280;25735;48.122;11.422;2023-02-03T04:51:21;96299.50;;;4.99
40045;BMP280;25735;48.122;11.422;2023-02-03T04:53:46;96300.16;;;5.06
40045;BMP280;25735;48.122;11.422;2023-02-03T04:56:11;96310.28;;;4.99
40045;BMP280;25735;48.122;11.422;2023-02-03T04:58:37;96276.81;;;5.00
40045;BMP280;25735;48.122;11.422;2023-02-03T05:01:06;96278.88;;;5.12
40045;BMP280;25735;48.122;11.422;2023-02-03T05:03:33;96290.59;;;5.02
40045;BMP280;25735;48.122;11.422;2023-02-03T05:05:58;96290.84;;;5.11
40045;BMP280;25735;48.122;11.422;2023-02-03T05:08:23;96295.41;;;5.14
40045;BMP280;25735;48.122;11.422;2023-02-03T05:10:49;96275.44;;;5.11
40045;BMP280;25735;48.122;11.422;2023-02-03T05:13:14;96288.59;;;5.06
40045;BMP280;25735;48.122;11.422;2023-02-03T05:15:39;96290.22;;;5.04
40045;BMP280;25735;48.122;11.422;2023-02-03T05:18:04;96297.13;;;5.04
40045;BMP280;25735;48.122;11.422;2023-02-03T05:20:29;96294.66;;;5.13
40045;BMP280;25735;48.122;11.422;2023-02-03T05:22:55;96293.09;;;5.12
40045;BMP280;25735;48.122;11.422;2023-02-03T05:25:20;96300.91;;;5.07
40045;BMP280;25735;48.122;11.422;2023-02-03T05:27:45;96290.28;;;5.00
40045;BMP280;25735;48.122;11.422;2023-02-03T05:30:11;96302.44;;;5.08
40045;BMP280;25735;48.122;11.422;2023-02-03T05:32:36;96303.75;;;5.00
40045;BMP280;25735;48.122;11.422;2023-02-03T05:35:01;96283.56;;;5.08
40045;BMP280;25735;48.122;11.422;2023-02-03T05:37:26;96293.78;;;4.97
40045;BMP280;25735;48.122;11.422;2023-02-03T05:39:52;96296.41;;;5.01
40045;BMP280;25735;48.122;11.422;2023-02-03T05:42:17;96287.66;;;4.97
40045;BMP280;25735;48.122;11.422;2023-02-03T05:44:42;96288.81;;;4.96
40045;BMP280;25735;48.122;11.422;2023-02-03T05:47:07;96281.16;;;4.94
40045;BMP280;25735;48.122;11.422;2023-02-03T05:49:33;96258.34;;;4.99
40045;BMP280;25735;48.122;11.422;2023-02-03T05:51:58;96252.28;;;4.95
40045;BMP280;25735;48.122;11.422;2023-02-03T05:54:23;96250.47;;;4.88
40045;BMP280;25735;48.122;11.422;2023-02-03T05:56:49;96258.84;;;4.94
40045;BMP280;25735;48.122;11.422;2023-02-03T05:59:14;96254.97;;;4.95
40045;BMP280;25735;48.122;11.422;2023-02-03T06:01:39;96261.34;;;5.04
40045;BMP280;25735;48.122;11.422;2023-02-03T06:04:05;96277.50;;;5.04
40045;BMP280;25735;48.122;11.422;2023-02-03T06:06:30;96264.63;;;4.92
40045;BMP280;25735;48.122;11.422;2023-02-03T06:08:59;96268.22;;;5.05
40045;BMP280;25735;48.122;11.422;2023-02-03T06:11:24;96262.22;;;4.98
40045;BMP280;25735;48.122;11.422;2023-02-03T06:13:50;96269.63;;;4.94
40045;BMP280;25735;48.122;11.422;2023-02-03T06:16:15;96272.25;;;4.97
40045;BMP280;25735;48.122;11.422;2023-02-03T06:18:41;96268.38;;;4.98
40045;BMP280;25735;48.122;11.422;2023-02-03T06:21:06;96261.47;;;4.97
40045;BMP280;25735;48.122;11.422;2023-02-03T06:23:31;96280.09;;;4.88
40045;BMP280;25735;48.122;11.422;2023-02-03T06:25:57;96282.72;;;4.92
40045;BMP280;25735;48.122;11.422;2023-02-03T06:28:24;96283.72;;;5.01
40045;BMP280;25735;48.122;11.422;2023-02-03T06:30:50;96299.56;;;4.96
40045;BMP280;25735;48.122;11.422;2023-02-03T06:33:16;96312.66;;;4.97
40045;BMP280;25735;48.122;11.422;2023-02-03T06:35:41;96316.22;;;4.91
40045;BMP280;25735;48.122;11.422;2023-02-03T06:38:06;96292.41;;;5.08
40045;BMP280;25735;48.122;11.422;2023-02-03T06:40:31;96266.38;;;5.02
40045;BMP280;25735;48.122;11.422;2023-02-03T06:42:57;96264.94;;;4.98
40045;BMP280;25735;48.122;11.422;2023-02-03T06:45:22;96243.84;;;4.93
40045;BMP280;25735;48.122;11.422;2023-02-03T06:47:48;96263.66;;;5.02
40045;BMP280;25735;48.122;11.422;2023-02-03T06:50:14;96255.66;;;4.99
40045;BMP280;25735;48.122;11.422;2023-02-03T06:52:40;96265.59;;;5.02
40045;BMP280;25735;48.122;11.422;2023-02-03T06:55:06;96274.50;;;4.99
40045;BMP280;25735;48.122;11.422;2023-02-03T06:57:32;96293.16;;;5.09
40045;BMP280;25735;48.122;11.422;2023-02-03T06:59:57;96284.34;;;5.08
40045;BMP280;25735;48.122;11.422;2023-02-03T07:02:22;96286.41;;;5.01
40045;BMP280;25735;48.122;11.422;2023-02-03T07:04:47;96296.56;;;5.13
40045;BMP280;25735;48.122;11.422;2023-02-03T07:07:13;96295.72;;;5.16
40045;BMP280;25735;48.122;11.422;2023-02-03T07:09:38;96281.56;;;5.12
40045;BMP280;25735;48.122;11.422;2023-02-03T07:12:05;96276.25;;;5.08
40045;BMP280;25735;48.122;11.422;2023-02-03T07:14:30;96267.34;;;5.11
40045;BMP280;25735;48.122;11.422;2023-02-03T07:16:55;96274.59;;;5.14
40045;BMP280;25735;48.122;11.422;2023-02-03T07:19:20;96271.41;;;5.19
40045;BMP280;25735;48.122;11.422;2023-02-03T07:21:46;96263.97;;;5.27
40045;BMP280;25735;48.122;11.422;2023-02-03T07:24:11;96265.53;;;5.05
40045;BMP280;25735;48.122;11.422;2023-02-03T07:26:36;96262.44;;;5.06
40045;BMP280;25735;48.122;11.422;2023-02-03T07:29:03;96264.56;;;5.15
40045;BMP280;25735;48.122;11.422;2023-02-03T07:31:28;96255.81;;;5.11
40045;BMP280;25735;48.122;11.422;2023-02-03T07:33:53;96256.84;;;5.17
40045;BMP280;25735;48.122;11.422;2023-02-03T07:36:18;96243.72;;;5.19
40045;BMP280;25735;48.122;11.422;2023-02-03T07:38:44;96242.19;;;5.18
40045;BMP280;25735;48.122;11.422;2023-02-03T07:41:09;96245.19;;;5.23
40045;BMP280;25735;48.122;11.422;2023-02-03T07:43:34;96225.97;;;5.21
40045;BMP280;25735;48.122;11.422;2023-02-03T07:45:59;96235.00;;;5.31
40045;BMP280;25735;48.122;11.422;2023-02-03T07:48:26;96232.75;;;5.29
40045;BMP280;25735;48.122;11.422;2023-02-03T07:50:51;96213.66;;;5.39
40045;BMP280;25735;48.122;11.422;2023-02-03T07:53:17;96247.22;;;5.35
40045;BMP280;25735;48.122;11.422;2023-02-03T07:55:42;96232.38;;;5.46
40045;BMP280;25735;48.122;11.422;2023-02-03T07:58:07;96227.72;;;5.47
40045;BMP280;25735;48.122;11.422;2023-02-03T08:00:33;96227.66;;;5.50
40045;BMP280;25735;48.122;11.422;2023-02-03T08:02:58;96209.97;;;5.49
40045;BMP280;25735;48.122;11.422;2023-02-03T08:05:24;96228.19;;;5.61
40045;BMP280;25735;48.122;11.422;2023-02-03T08:07:49;96229.78;;;5.59
40045;BMP280;25735;48.122;11.422;2023-02-03T08:10:14;96246.50;;;5.69
40045;BMP280;25735;48.122;11.422;2023-02-03T08:12:40;96244.44;;;5.58
40045;BMP280;25735;48.122;11.422;2023-02-03T08:15:10;96236.69;;;5.60
40045;BMP280;25735;48.122;11.422;2023-02-03T08:17:35;96250.59;;;5.58
40045;BMP280;25735;48.122;11.422;2023-02-03T08:20:04;96248.16;;;5.63
40045;BMP280;25735;48.122;11.422;2023-02-03T08:22:30;96262.69;;;5.69
40045;BMP280;25735;48.122;11.422;2023-02-03T08:24:55;96268.84;;;5.70
40045;BMP280;25735;48.122;11.422;2023-02-03T08:27:21;96268.03;;;5.73
40045;BMP280;25735;48.122;11.422;2023-02-03T08:29:47;96274.09;;;5.77
40045;BMP280;25735;48.122;11.422;2023-02-03T08:32:15;96276.78;;;5.77
40045;BMP280;25735;48.122;11.422;2023-02-03T08:34:41;96265.00;;;5.67
40045;BMP280;25735;48.122;11.422;2023-02-03T08:37:07;96265.53;;;5.82
40045;BMP280;25735;48.122;11.422;2023-02-03T08:39:33;96269.38;;;5.81
40045;BMP280;25735;48.122;11.422;2023-02-03T08:41:59;96273.78;;;5.90
40045;BMP280;25735;48.122;11.422;2023-02-03T08:44:24;96274.91;;;6.09
40045;BMP280;25735;48.122;11.422;2023-02-03T08:46:51;96292.53;;;6.13
40045;BMP280;25735;48.122;11.422;2023-02-03T08:49:17;96277.72;;;6.21
40045;BMP280;25735;48.122;11.422;2023-02-03T08:51:44;96270.81;;;6.20
40045;BMP280;25735;48.122;11.422;2023-02-03T08:54:10;96244.13;;;6.06
40045;BMP280;25735;48.122;11.422;2023-02-03T08:56:35;96223.38;;;6.19
40045;BMP280;25735;48.122;11.422;2023-02-03T08:59:00;96227.28;;;6.18
40045;BMP280;25735;48.122;11.422;2023-02-03T09:01:26;96237.47;;;6.26
40045;BMP280;25735;48.122;11.422;2023-02-03T09:03:51;96249.34;;;6.13
40045;BMP280;25735;48.122;11.422;2023-02-03T09:06:16;96232.75;;;6.15
40045;BMP280;25735;48.122;11.422;2023-02-03T09:08:42;96225.41;;;6.31
40045;BMP280;25735;48.122;11.422;2023-02-03T09:11:12;96213.78;;;6.34
40045;BMP280;25735;48.122;11.422;2023-02-03T09:13:38;96205.69;;;6.34
40045;BMP280;25735;48.122;11.422;2023-02-03T09:16:06;96213.03;;;6.33
40045;BMP280;25735;48.122;11.422;2023-02-03T09:18:32;96226.44;;;6.37
40045;BMP280;25735;48.122;11.422;2023-02-03T09:21:06;96231.31;;;6.42
40045;BMP280;25735;48.122;11.422;2023-02-03T09:23:31;96220.19;;;6.40
40045;BMP280;25735;48.122;11.422;2023-02-03T09:26:01;96220.00;;;6.46
40045;BMP280;25735;48.122;11.422;2023-02-03T09:28:27;96244.81;;;6.42
40045;BMP280;25735;48.122;11.422;2023-02-03T09:30:53;96219.56;;;6.48
40045;BMP280;25735;48.122;11.422;2023-02-03T09:33:18;96221.16;;;6.61
40045;BMP280;25735;48.122;11.422;2023-02-03T09:35:51;96246.84;;;6.53
40045;BMP280;25735;48.122;11.422;2023-02-03T09:38:16;96238.56;;;6.45
40045;BMP280;25735;48.122;11.422;2023-02-03T09:40:42;96249.75;;;6.59
40045;BMP280;25735;48.122;11.422;2023-02-03T09:43:28;96221.81;;;6.65
40045;BMP280;25735;48.122;11.422;2023-02-03T09:46:01;96213.97;;;6.71
40045;BMP280;25735;48.122;11.422;2023-02-03T09:48:35;96226.38;;;6.68
40045;BMP280;25735;48.122;11.422;2023-02-03T09:51:02;96205.81;;;6.58
40045;BMP280;25735;48.122;11.422;2023-02-03T09:53:38;96248.41;;;6.82
40045;BMP280;25735;48.122;11.422;2023-02-03T09:56:19;96257.44;;;6.76
40045;BMP280;25735;48.122;11.422;2023-02-03T09:58:46;96249.84;;;6.71
40045;BMP280;25735;48.122;11.422;2023-02-03T10:01:11;96240.38;;;6.79
40045;BMP280;25735;48.122;11.422;2023-02-03T10:03:46;96214.97;;;6.76
40045;BMP280;25735;48.122;11.422;2023-02-03T10:19:37;96253.91;;;6.79
40045;BMP280;25735;48.122;11.422;2023-02-03T10:22:07;96239.03;;;6.71
40045;BMP280;25735;48.122;11.422;2023-02-03T10:24:58;96240.53;;;6.88
40045;BMP280;25735;48.122;11.422;2023-02-03T10:27:24;96234.44;;;6.84
40045;BMP280;25735;48.122;11.422;2023-02-03T10:29:57;96239.31;;;7.04
40045;BMP280;25735;48.122;11.422;2023-02-03T10:32:25;96227.50;;;6.99
40045;BMP280;25735;48.122;11.422;2023-02-03T10:34:51;96231.97;;;7.17
40045;BMP280;25735;48.122;11.422;2023-02-03T10:37:31;96215.94;;;6.98
40045;BMP280;25735;48.122;11.422;2023-02-03T10:39:59;96218.00;;;7.34
40045;BMP280;25735;48.122;11.422;2023-02-03T10:42:30;96236.50;;;7.08
40045;BMP280;25735;48.122;11.422;2023-02-03T10:45:16;96208.91;;;6.73
40045;BMP280;25735;48.122;11.422;2023-02-03T10:47:46;96226.88;;;6.79
40045;BMP280;25735;48.122;11.422;2023-02-03T10:50:17;96223.59;;;6.72
40045;BMP280;25735;48.122;11.422;2023-02-03T10:52:43;96222.06;;;7.14
40045;BMP280;25735;48.122;11.422;2023-02-03T10:57:46;96200.31;;;7.18
40045;BMP280;25735;48.122;11.422;2023-02-03T11:00:28;96215.31;;;7.06
40045;BMP280;25735;48.122;11.422;2023-02-03T11:02:55;96223.16;;;7.29
40045;BMP280;25735;48.122;11.422;2023-02-03T11:05:22;96214.75;;;7.27
40045;BMP280;25735;48.122;11.422;2023-02-03T11:07:49;96220.69;;;7.34
40045;BMP280;25735;48.122;11.422;2023-02-03T11:10:32;96214.63;;;7.43
40045;BMP280;25735;48.122;11.422;2023-02-03T11:15:35;96224.22;;;7.19
40045;BMP280;25735;48.122;11.422;2023-02-03T11:18:00;96221.50;;;7.19
40045;BMP280;25735;48.122;11.422;2023-02-03T11:20:27;96215.84;;;7.42
40045;BMP280;25735;48.122;11.422;2023-02-03T11:22:53;96198.09;;;7.41
40045;BMP280;25735;48.122;11.422;2023-02-03T11:25:27;96186.03;;;7.70
40045;BMP280;25735;48.122;11.422;2023-02-03T11:28:03;96189.06;;;7.59
40045;BMP280;25735;48.122;11.422;2023-02-03T11:30:29;96191.75;;;7.84
40045;BMP280;25735;48.122;11.422;2023-02-03T11:32:54;96179.53;;;7.67
40045;BMP280;25735;48.122;11.422;2023-02-03T11:35:27;96190.25;;;7.83
40045;BMP280;25735;48.122;11.422;2023-02-03T11:37:58;96173.25;;;8.19
40045;BMP280;25735;48.122;11.422;2023-02-03T11:45:36;96126.56;;;8.03
40045;BMP280;25735;48.122;11.422;2023-02-03T11:57:01;96148.03;;;7.73
40045;BMP280;25735;48.122;11.422;2023-02-03T11:59:53;96134.81;;;7.87
40045;BMP280;25735;48.122;11.422;2023-02-03T12:02:32;96140.22;;;7.87
40045;BMP280;25735;48.122;11.422;2023-02-03T12:05:21;96113.63;;;7.86
40045;BMP280;25735;48.122;11.422;2023-02-03T12:08:11;96135.34;;;7.95
40045;BMP280;25735;48.122;11.422;2023-02-03T12:10:56;96150.19;;;7.78
40045;BMP280;25735;48.122;11.422;2023-02-03T12:16:24;96122.16;;;7.72
40045;BMP280;25735;48.122;11.422;2023-02-03T12:21:45;96124.78;;;7.63
40045;BMP280;25735;48.122;11.422;2023-02-03T12:24:35;96129.44;;;7.63
40045;BMP280;25735;48.122;11.422;2023-02-03T12:27:21;96134.50;;;7.49
40045;BMP280;25735;48.122;11.422;2023-02-03T12:29:58;96126.59;;;7.29
40045;BMP280;25735;48.122;11.422;2023-02-03T12:32:33;96110.03;;;7.40
40045;BMP280;25735;48.122;11.422;2023-02-03T12:35:16;96100.97;;;7.46
40045;BMP280;25735;48.122;11.422;2023-02-03T12:37:55;96102.91;;;7.46
40045;BMP280;25735;48.122;11.422;2023-02-03T12:40:41;96105.63;;;7.46
40045;BMP280;25735;48.122;11.422;2023-02-03T12:43:36;96087.13;;;7.32
40045;BMP280;25735;48.122;11.422;2023-02-03T12:46:13;96072.63;;;7.26
40045;BMP280;25735;48.122;11.422;2023-02-03T12:51:19;96059.34;;;7.31
40045;BMP280;25735;48.122;11.422;2023-02-03T12:53:52;96059.22;;;7.35
40045;BMP280;25735;48.122;11.422;2023-02-03T12:56:25;96055.34;;;7.36
40045;BMP280;25735;48.122;11.422;2023-02-03T12:58:59;96055.03;;;7.34
40045;BMP280;25735;48.122;11.422;2023-02-03T13:01:48;96042.59;;;7.24
40045;BMP280;25735;48.122;11.422;2023-02-03T13:04:32;96030.88;;;7.52
40045;BMP280;25735;48.122;11.422;2023-02-03T13:07:15;96017.47;;;7.48
40045;BMP280;25735;48.122;11.422;2023-02-03T13:10:05;95994.34;;;7.35
40045;BMP280;25735;48.122;11.422;2023-02-03T13:12:40;96030.47;;;7.41
40045;BMP280;25735;48.122;11.422;2023-02-03T13:18:24;96011.44;;;7.44
40045;BMP280;25735;48.122;11.422;2023-02-03T13:20:52;96011.22;;;7.39
40045;BMP280;25735;48.122;11.422;2023-02-03T13:23:18;96007.09;;;7.47
40045;BMP280;25735;48.122;11.422;2023-02-03T13:25:56;96015.22;;;7.47
40045;BMP280;25735;48.122;11.422;2023-02-03T13:34:28;96017.59;;;7.45
40045;BMP280;25735;48.122;11.422;2023-02-03T13:42:30;95988.59;;;7.45
40045;BMP280;25735;48.122;11.422;2023-02-03T13:45:08;95989.28;;;7.37
40045;BMP280;25735;48.122;11.422;2023-02-03T13:47:37;95959.44;;;7.03
40045;BMP280;25735;48.122;11.422;2023-02-03T13:50:14;95983.13;;;7.24
40045;BMP280;25735;48.122;11.422;2023-02-03T13:53:22;95967.53;;;7.28
40045;BMP280;25735;48.122;11.422;2023-02-03T13:55:57;95976.63;;;7.22
40045;BMP280;25735;48.122;11.422;2023-02-03T13:58:32;95979.97;;;7.26
40045;BMP280;25735;48.122;11.422;2023-02-03T14:01:00;95968.75;;;7.27
40045;BMP280;25735;48.122;11.422;2023-02-03T14:05:52;95959.22;;;7.23
40045;BMP280;25735;48.122;11.422;2023-02-03T14:14:03;95962.13;;;7.28
40045;BMP280;25735;48.122;11.422;2023-02-03T14:16:51;95938.91;;;7.06
40045;BMP280;25735;48.122;11.422;2023-02-03T14:21:50;95943.34;;;7.12
40045;BMP280;25735;48.122;11.422;2023-02-03T14:24:16;95953.50;;;7.08
40045;BMP280;25735;48.122;11.422;2023-02-03T14:26:44;95910.47;;;7.14
40045;BMP280;25735;48.122;11.422;2023-02-03T14:29:28;95936.22;;;7.18
40045;BMP280;25735;48.122;11.422;2023-02-03T14:34:47;95972.44;;;7.21
40045;BMP280;25735;48.122;11.422;2023-02-03T14:37:30;95964.22;;;7.12
40045;BMP280;25735;48.122;11.422;2023-02-03T14:40:14;95968.19;;;7.07
40045;BMP280;25735;48.122;11.422;2023-02-03T14:45:31;95974.50;;;7.04
40045;BMP280;25735;48.122;11.422;2023-02-03T14:50:33;95992.09;;;7.09
40045;BMP280;25735;48.122;11.422;2023-02-03T14:53:21;95970.47;;;7.09
40045;BMP280;25735;48.122;11.422;2023-02-03T14:58:52;95954.50;;;7.02
40045;BMP280;25735;48.122;11.422;2023-02-03T15:02:07;95963.34;;;7.02
40045;BMP280;25735;48.122;11.422;2023-02-03T15:04:26;95940.66;;;7.00
40045;BMP280;25735;48.122;11.422;2023-02-03T15:06:52;95952.31;;;6.97
40045;BMP280;25735;48.122;11.422;2023-02-03T15:09:30;95947.47;;;7.04
40045;BMP280;25735;48.122;11.422;2023-02-03T15:11:57;95922.28;;;6.95
40045;BMP280;25735;48.122;11.422;2023-02-03T15:14:24;95940.13;;;6.93
40045;BMP280;25735;48.122;11.422;2023-02-03T15:16:53;95941.72;;;7.02
40045;BMP280;25735;48.122;11.422;2023-02-03T15:19:23;95953.50;;;7.08
40045;BMP280;25735;48.122;11.422;2023-02-03T15:21:48;95948.75;;;6.88
40045;BMP280;25735;48.122;11.422;2023-02-03T15:24:16;95938.28;;;7.02
40045;BMP280;25735;48.122;11.422;2023-02-03T15:26:49;95943.56;;;6.93
40045;BMP280;25735;48.122;11.422;2023-02-03T15:29:32;95963.69;;;6.92
40045;BMP280;25735;48.122;11.422;2023-02-03T15:32:01;95965.84;;;6.85
40045;BMP280;25735;48.122;11.422;2023-02-03T15:34:35;95964.31;;;6.96
40045;BMP280;25735;48.122;11.422;2023-02-03T15:37:10;95976.66;;;6.85
40045;BMP280;25735;48.122;11.422;2023-02-03T15:39:52;95994.03;;;6.96
40045;BMP280;25735;48.122;11.422;2023-02-03T15:42:22;95971.13;;;7.01
40045;BMP280;25735;48.122;11.422;2023-02-03T15:44:58;95984.00;;;6.97
40045;BMP280;25735;48.122;11.422;2023-02-03T15:47:31;95960.88;;;6.96
40045;BMP280;25735;48.122;11.422;2023-02-03T15:50:05;95961.63;;;6.96
40045;BMP280;25735;48.122;11.422;2023-02-03T15:52:34;95958.59;;;6.94
40045;BMP280;25735;48.122;11.422;2023-02-03T15:55:09;95960.00;;;6.99
40045;BMP280;25735;48.122;11.422;2023-02-03T15:57:37;95956.00;;;6.91